sensor_id;sensor_type;location;lat;lon;timestamp;P1;durP1;ratioP1;P2;durP2;ratioP2
26906;SDS011;14472;56.880;16.658;2022-09-06T00:00:37;0.77;;;0.77;;
26906;SDS011;14472;56.880;16.658;2022-09-06T00:03:03;0.60;;;0.60;;
26906;SDS011;14472;56.880;16.658;2022-09-06T00:05:30;0.70;;;0.70;;
26906;SDS011;14472;56.880;16.658;2022-09-06T00:07:57;0.63;;;0.60;;
26906;SDS011;14472;56.880;16.658;2022-09-06T00:10:24;0.70;;;0.70;;
26906;SDS011;14472;56.880;16.658;2022-09-06T00:12:50;0.60;;;0.60;;
26906;SDS011;14472;56.880;16.658;2022-09-06T00:15:16;0.60;;;0.60;;
26906;SDS011;14472;56.880;16.658;2022-09-06T00:17:42;0.67;;;0.67;;
26906;SDS011;14472;56.880;16.658;2022-09-06T00:20:11;0.50;;;0.50;;
26906;SDS011;14472;56.880;16.658;2022-09-06T00:22:36;0.70;;;0.70;;
26906;SDS011;14472;56.880;16.658;2022-09-06T00:25:03;0.60;;;0.60;;
26906;SDS011;14472;56.880;16.658;2022-09-06T00:27:30;0.60;;;0.60;;
26906;SDS011;14472;56.880;16.658;2022-09-06T00:29:56;0.60;;;0.60;;
26906;SDS011;14472;56.880;16.658;2022-09-06T00:32:21;0.60;;;0.60;;
26906;SDS011;14472;56.880;16.658;2022-09-06T00:34:47;0.70;;;0.70;;
26906;SDS011;14472;56.880;16.658;2022-09-06T00:37:13;0.60;;;0.60;;
26906;SDS011;14472;56.880;16.658;2022-09-06T00:39:39;0.87;;;0.60;;
26906;SDS011;14472;56.880;16.658;2022-09-06T00:42:08;0.60;;;0.60;;
26906;SDS011;14472;56.880;16.658;2022-09-06T00:44:35;0.60;;;0.60;;
26906;SDS011;14472;56.880;16.658;2022-09-06T00:47:01;0.70;;;0.70;;
26906;SDS011;14472;56.880;16.658;2022-09-06T00:49:29;0.60;;;0.60;;
26906;SDS011;14472;56.880;16.658;2022-09-06T00:52:03;0.60;;;0.60;;
26906;SDS011;14472;56.880;16.658;2022-09-06T00:54:33;0.60;;;0.60;;
26906;SDS011;14472;56.880;16.658;2022-09-06T00:57:00;0.50;;;0.50;;
26906;SDS011;14472;56.880;16.658;2022-09-06T00:59:26;0.70;;;0.70;;
26906;SDS011;14472;56.880;16.658;2022-09-06T01:01:55;0.80;;;0.60;;
26906;SDS011;14472;56.880;16.658;2022-09-06T01:04:21;0.70;;;0.70;;
26906;SDS011;14472;56.880;16.658;2022-09-06T01:07:02;0.60;;;0.60;;
26906;SDS011;14472;56.880;16.658;2022-09-06T01:29:00;0.73;;;0.73;;
26906;SDS011;14472;56.880;16.658;2022-09-06T01:31:43;0.60;;;0.60;;
26906;SDS011;14472;56.880;16.658;2022-09-06T01:34:22;0.60;;;0.60;;
26906;SDS011;14472;56.880;16.658;2022-09-06T01:36:57;0.60;;;0.60;;
26906;SDS011;14472;56.880;16.658;2022-09-06T01:39:27;0.80;;;0.80;;
26906;SDS011;14472;56.880;16.658;2022-09-06T01:41:58;0.70;;;0.60;;
26906;SDS011;14472;56.880;16.658;2022-09-06T01:44:51;0.70;;;0.60;;
26906;SDS011;14472;56.880;16.658;2022-09-06T02:01:08;0.50;;;0.50;;
26906;SDS011;14472;56.880;16.658;2022-09-06T02:06:26;0.53;;;0.53;;
26906;SDS011;14472;56.880;16.658;2022-09-06T02:09:03;0.50;;;0.50;;
26906;SDS011;14472;56.880;16.658;2022-09-06T02:11:36;0.60;;;0.60;;
26906;SDS011;14472;56.880;16.658;2022-09-06T02:14:14;0.50;;;0.50;;
26906;SDS011;14472;56.880;16.658;2022-09-06T02:16:47;0.80;;;0.60;;
26906;SDS011;14472;56.880;16.658;2022-09-06T02:19:16;0.73;;;0.73;;
26906;SDS011;14472;56.880;16.658;2022-09-06T02:22:09;0.63;;;0.63;;
26906;SDS011;14472;56.880;16.658;2022-09-06T02:24:37;0.67;;;0.67;;
26906;SDS011;14472;56.880;16.658;2022-09-06T02:27:07;0.60;;;0.60;;
26906;SDS011;14472;56.880;16.658;2022-09-06T02:29:33;0.60;;;0.60;;
26906;SDS011;14472;56.880;16.658;2022-09-06T02:32:19;0.70;;;0.70;;
26906;SDS011;14472;56.880;16.658;2022-09-06T02:34:50;1.43;;;0.67;;
26906;SDS011;14472;56.880;16.658;2022-09-06T02:37:18;0.97;;;0.60;;
26906;SDS011;14472;56.880;16.658;2022-09-06T02:39:44;0.60;;;0.60;;
26906;SDS011;14472;56.880;16.658;2022-09-06T02:42:10;0.60;;;0.60;;
26906;SDS011;14472;56.880;16.658;2022-09-06T02:44:38;0.60;;;0.60;;
26906;SDS011;14472;56.880;16.658;2022-09-06T02:47:04;0.60;;;0.50;;
26906;SDS011;14472;56.880;16.658;2022-09-06T02:49:30;1.23;;;0.70;;
26906;SDS011;14472;56.880;16.658;2022-09-06T02:51:56;0.70;;;0.70;;
26906;SDS011;14472;56.880;16.658;2022-09-06T02:54:22;0.93;;;0.70;;
26906;SDS011;14472;56.880;16.658;2022-09-06T02:56:48;0.60;;;0.60;;
26906;SDS011;14472;56.880;16.658;2022-09-06T02:59:13;1.37;;;0.70;;
26906;SDS011;14472;56.880;16.658;2022-09-06T03:01:39;1.03;;;0.73;;
26906;SDS011;14472;56.880;16.658;2022-09-06T03:04:05;0.60;;;0.60;;
26906;SDS011;14472;56.880;16.658;2022-09-06T03:06:31;0.60;;;0.60;;
26906;SDS011;14472;56.880;16.658;2022-09-06T03:08:57;0.50;;;0.50;;
26906;SDS011;14472;56.880;16.658;2022-09-06T03:11:24;0.90;;;0.67;;
26906;SDS011;14472;56.880;16.658;2022-09-06T03:13:50;0.60;;;0.60;;
26906;SDS011;14472;56.880;16.658;2022-09-06T03:16:16;0.50;;;0.50;;
26906;SDS011;14472;56.880;16.658;2022-09-06T03:18:43;0.60;;;0.60;;
26906;SDS011;14472;56.880;16.658;2022-09-06T03:21:09;0.60;;;0.60;;
26906;SDS011;14472;56.880;16.658;2022-09-06T03:23:35;1.27;;;0.50;;
26906;SDS011;14472;56.880;16.658;2022-09-06T03:26:03;0.60;;;0.60;;
26906;SDS011;14472;56.880;16.658;2022-09-06T03:28:30;0.60;;;0.60;;
26906;SDS011;14472;56.880;16.658;2022-09-06T03:30:56;0.70;;;0.70;;
26906;SDS011;14472;56.880;16.658;2022-09-06T03:33:21;0.60;;;0.60;;
26906;SDS011;14472;56.880;16.658;2022-09-06T03:35:52;1.03;;;0.60;;
26906;SDS011;14472;56.880;16.658;2022-09-06T03:38:19;0.67;;;0.67;;
26906;SDS011;14472;56.880;16.658;2022-09-06T03:40:46;0.80;;;0.80;;
26906;SDS011;14472;56.880;16.658;2022-09-06T03:43:13;0.70;;;0.70;;
26906;SDS011;14472;56.880;16.658;2022-09-06T03:45:43;0.50;;;0.50;;
26906;SDS011;14472;56.880;16.658;2022-09-06T03:48:10;0.53;;;0.50;;
26906;SDS011;14472;56.880;16.658;2022-09-06T03:50:36;0.50;;;0.50;;
26906;SDS011;14472;56.880;16.658;2022-09-06T03:53:01;0.70;;;0.70;;
26906;SDS011;14472;56.880;16.658;2022-09-06T03:55:27;0.70;;;0.70;;
26906;SDS011;14472;56.880;16.658;2022-09-06T03:57:53;0.80;;;0.80;;
26906;SDS011;14472;56.880;16.658;2022-09-06T04:00:18;0.87;;;0.87;;
26906;SDS011;14472;56.880;16.658;2022-09-06T04:02:44;2.60;;;0.80;;
26906;SDS011;14472;56.880;16.658;2022-09-06T04:05:10;1.43;;;0.80;;
26906;SDS011;14472;56.880;16.658;2022-09-06T04:07:37;0.80;;;0.80;;
26906;SDS011;14472;56.880;16.658;2022-09-06T04:10:03;0.90;;;0.80;;
26906;SDS011;14472;56.880;16.658;2022-09-06T04:12:29;1.10;;;0.97;;
26906;SDS011;14472;56.880;16.658;2022-09-06T04:14:55;1.53;;;0.90;;
26906;SDS011;14472;56.880;16.658;2022-09-06T04:17:21;0.90;;;0.90;;
26906;SDS011;14472;56.880;16.658;2022-09-06T04:19:46;2.17;;;1.30;;
26906;SDS011;14472;56.880;16.658;2022-09-06T04:22:12;2.10;;;1.07;;
26906;SDS011;14472;56.880;16.658;2022-09-06T04:24:38;3.13;;;1.60;;
26906;SDS011;14472;56.880;16.658;2022-09-06T04:27:03;1.30;;;1.20;;
26906;SDS011;14472;56.880;16.658;2022-09-06T04:29:29;1.20;;;1.07;;
26906;SDS011;14472;56.880;16.658;2022-09-06T04:31:55;1.50;;;1.27;;
26906;SDS011;14472;56.880;16.658;2022-09-06T04:34:20;1.17;;;1.00;;
26906;SDS011;14472;56.880;16.658;2022-09-06T04:36:46;3.83;;;1.13;;
26906;SDS011;14472;56.880;16.658;2022-09-06T04:39:12;1.60;;;1.10;;
26906;SDS011;14472;56.880;16.658;2022-09-06T04:41:38;1.80;;;1.10;;
26906;SDS011;14472;56.880;16.658;2022-09-06T04:44:03;2.50;;;1.13;;
26906;SDS011;14472;56.880;16.658;2022-09-06T04:46:29;1.20;;;1.10;;
26906;SDS011;14472;56.880;16.658;2022-09-06T04:48:55;1.87;;;1.20;;
26906;SDS011;14472;56.880;16.658;2022-09-06T04:51:22;3.03;;;1.00;;
26906;SDS011;14472;56.880;16.658;2022-09-06T04:53:49;1.07;;;0.90;;
26906;SDS011;14472;56.880;16.658;2022-09-06T04:56:22;1.37;;;1.07;;
26906;SDS011;14472;56.880;16.658;2022-09-06T04:58:49;2.20;;;1.10;;
26906;SDS011;14472;56.880;16.658;2022-09-06T05:01:15;1.37;;;0.97;;
26906;SDS011;14472;56.880;16.658;2022-09-06T05:03:41;1.80;;;0.97;;
26906;SDS011;14472;56.880;16.658;2022-09-06T05:06:11;1.37;;;1.20;;
26906;SDS011;14472;56.880;16.658;2022-09-06T05:08:42;1.20;;;1.00;;
26906;SDS011;14472;56.880;16.658;2022-09-06T05:11:08;2.30;;;1.00;;
26906;SDS011;14472;56.880;16.658;2022-09-06T05:13:35;2.00;;;1.17;;
26906;SDS011;14472;56.880;16.658;2022-09-06T05:16:01;1.00;;;0.90;;
26906;SDS011;14472;56.880;16.658;2022-09-06T05:18:27;2.97;;;1.10;;
26906;SDS011;14472;56.880;16.658;2022-09-06T05:20:54;3.23;;;1.20;;
26906;SDS011;14472;56.880;16.658;2022-09-06T05:23:20;2.03;;;1.10;;
26906;SDS011;14472;56.880;16.658;2022-09-06T05:25:47;2.07;;;1.20;;
26906;SDS011;14472;56.880;16.658;2022-09-06T05:28:13;3.50;;;1.33;;
26906;SDS011;14472;56.880;16.658;2022-09-06T05:30:40;1.33;;;1.10;;
26906;SDS011;14472;56.880;16.658;2022-09-06T05:33:09;1.20;;;1.07;;
26906;SDS011;14472;56.880;16.658;2022-09-06T05:35:36;2.40;;;1.20;;
26906;SDS011;14472;56.880;16.658;2022-09-06T05:38:01;1.00;;;1.00;;
26906;SDS011;14472;56.880;16.658;2022-09-06T05:40:27;1.93;;;0.90;;
26906;SDS011;14472;56.880;16.658;2022-09-06T05:42:53;0.87;;;0.87;;
26906;SDS011;14472;56.880;16.658;2022-09-06T05:45:19;2.17;;;1.17;;
26906;SDS011;14472;56.880;16.658;2022-09-06T05:47:45;2.00;;;0.80;;
26906;SDS011;14472;56.880;16.658;2022-09-06T05:50:10;3.40;;;0.90;;
26906;SDS011;14472;56.880;16.658;2022-09-06T05:52:36;1.70;;;1.23;;
26906;SDS011;14472;56.880;16.658;2022-09-06T05:55:04;1.00;;;0.90;;
26906;SDS011;14472;56.880;16.658;2022-09-06T05:57:30;1.50;;;1.13;;
26906;SDS011;14472;56.880;16.658;2022-09-06T05:59:56;5.37;;;1.87;;
26906;SDS011;14472;56.880;16.658;2022-09-06T06:02:22;4.13;;;1.63;;
26906;SDS011;14472;56.880;16.658;2022-09-06T06:04:48;4.07;;;1.20;;
26906;SDS011;14472;56.880;16.658;2022-09-06T06:07:15;1.60;;;0.90;;
26906;SDS011;14472;56.880;16.658;2022-09-06T06:09:41;0.87;;;0.83;;
26906;SDS011;14472;56.880;16.658;2022-09-06T06:12:07;1.43;;;0.57;;
26906;SDS011;14472;56.880;16.658;2022-09-06T06:14:34;2.27;;;1.00;;
26906;SDS011;14472;56.880;16.658;2022-09-06T06:16:59;0.87;;;0.87;;
26906;SDS011;14472;56.880;16.658;2022-09-06T06:19:26;1.07;;;0.87;;
26906;SDS011;14472;56.880;16.658;2022-09-06T06:21:52;1.70;;;1.20;;
26906;SDS011;14472;56.880;16.658;2022-09-06T06:24:20;1.53;;;0.80;;
26906;SDS011;14472;56.880;16.658;2022-09-06T06:26:46;2.57;;;1.13;;
26906;SDS011;14472;56.880;16.658;2022-09-06T06:29:11;0.80;;;0.60;;
26906;SDS011;14472;56.880;16.658;2022-09-06T06:31:38;0.60;;;0.60;;
26906;SDS011;14472;56.880;16.658;2022-09-06T06:34:04;1.03;;;0.70;;
26906;SDS011;14472;56.880;16.658;2022-09-06T06:36:31;0.80;;;0.70;;
26906;SDS011;14472;56.880;16.658;2022-09-06T06:38:58;1.73;;;0.80;;
26906;SDS011;14472;56.880;16.658;2022-09-06T06:41:25;0.70;;;0.70;;
26906;SDS011;14472;56.880;16.658;2022-09-06T06:43:56;5.40;;;0.90;;
26906;SDS011;14472;56.880;16.658;2022-09-06T06:46:27;1.60;;;0.80;;
26906;SDS011;14472;56.880;16.658;2022-09-06T06:48:55;0.70;;;0.70;;
26906;SDS011;14472;56.880;16.658;2022-09-06T06:51:22;0.60;;;0.60;;
26906;SDS011;14472;56.880;16.658;2022-09-06T06:53:49;0.70;;;0.70;;
26906;SDS011;14472;56.880;16.658;2022-09-06T06:56:19;5.60;;;0.77;;
26906;SDS011;14472;56.880;16.658;2022-09-06T06:58:48;6.87;;;1.03;;
26906;SDS011;14472;56.880;16.658;2022-09-06T07:01:15;3.53;;;0.80;;
26906;SDS011;14472;56.880;16.658;2022-09-06T07:03:42;1.33;;;0.70;;
26906;SDS011;14472;56.880;16.658;2022-09-06T07:06:08;1.57;;;0.60;;
26906;SDS011;14472;56.880;16.658;2022-09-06T07:08:34;0.70;;;0.70;;
26906;SDS011;14472;56.880;16.658;2022-09-06T07:11:08;2.43;;;0.70;;
26906;SDS011;14472;56.880;16.658;2022-09-06T07:13:35;0.50;;;0.50;;
26906;SDS011;14472;56.880;16.658;2022-09-06T07:16:05;1.87;;;0.70;;
26906;SDS011;14472;56.880;16.658;2022-09-06T07:18:36;0.50;;;0.50;;
26906;SDS011;14472;56.880;16.658;2022-09-06T07:21:06;2.73;;;1.40;;
26906;SDS011;14472;56.880;16.658;2022-09-06T07:23:36;0.80;;;0.80;;
26906;SDS011;14472;56.880;16.658;2022-09-06T07:26:02;0.97;;;0.77;;
26906;SDS011;14472;56.880;16.658;2022-09-06T07:28:28;0.60;;;0.60;;
26906;SDS011;14472;56.880;16.658;2022-09-06T07:30:55;0.70;;;0.70;;
26906;SDS011;14472;56.880;16.658;2022-09-06T07:33:22;0.50;;;0.50;;
26906;SDS011;14472;56.880;16.658;2022-09-06T07:35:58;0.60;;;0.60;;
26906;SDS011;14472;56.880;16.658;2022-09-06T07:38:26;1.80;;;0.70;;
26906;SDS011;14472;56.880;16.658;2022-09-06T07:40:53;0.63;;;0.63;;
26906;SDS011;14472;56.880;16.658;2022-09-06T07:43:20;1.30;;;0.80;;
26906;SDS011;14472;56.880;16.658;2022-09-06T07:45:46;2.93;;;0.70;;
26906;SDS011;14472;56.880;16.658;2022-09-06T07:48:12;2.30;;;0.83;;
26906;SDS011;14472;56.880;16.658;2022-09-06T07:50:38;4.60;;;0.70;;
26906;SDS011;14472;56.880;16.658;2022-09-06T07:53:05;5.57;;;1.10;;
26906;SDS011;14472;56.880;16.658;2022-09-06T07:55:31;2.03;;;0.60;;
26906;SDS011;14472;56.880;16.658;2022-09-06T07:57:56;0.80;;;0.70;;
26906;SDS011;14472;56.880;16.658;2022-09-06T08:00:22;1.65;;;0.90;;
26906;SDS011;14472;56.880;16.658;2022-09-06T08:02:48;0.50;;;0.50;;
26906;SDS011;14472;56.880;16.658;2022-09-06T08:05:13;0.60;;;0.60;;
26906;SDS011;14472;56.880;16.658;2022-09-06T08:07:39;3.70;;;0.70;;
26906;SDS011;14472;56.880;16.658;2022-09-06T08:10:05;0.93;;;0.70;;
26906;SDS011;14472;56.880;16.658;2022-09-06T08:12:31;0.52;;;0.52;;
26906;SDS011;14472;56.880;16.658;2022-09-06T08:14:56;0.88;;;0.85;;
26906;SDS011;14472;56.880;16.658;2022-09-06T08:17:22;1.75;;;0.68;;
26906;SDS011;14472;56.880;16.658;2022-09-06T08:19:48;0.57;;;0.57;;
26906;SDS011;14472;56.880;16.658;2022-09-06T08:22:14;0.50;;;0.50;;
26906;SDS011;14472;56.880;16.658;2022-09-06T08:24:39;0.68;;;0.57;;
26906;SDS011;14472;56.880;16.658;2022-09-06T08:27:05;0.60;;;0.60;;
26906;SDS011;14472;56.880;16.658;2022-09-06T08:29:34;0.50;;;0.50;;
26906;SDS011;14472;56.880;16.658;2022-09-06T08:32:00;0.60;;;0.60;;
26906;SDS011;14472;56.880;16.658;2022-09-06T08:34:26;0.80;;;0.50;;
26906;SDS011;14472;56.880;16.658;2022-09-06T08:36:52;0.60;;;0.60;;
26906;SDS011;14472;56.880;16.658;2022-09-06T08:39:17;0.50;;;0.43;;
26906;SDS011;14472;56.880;16.658;2022-09-06T08:41:48;0.65;;;0.60;;
26906;SDS011;14472;56.880;16.658;2022-09-06T08:46:58;0.68;;;0.68;;
26906;SDS011;14472;56.880;16.658;2022-09-06T08:49:32;1.90;;;0.60;;
26906;SDS011;14472;56.880;16.658;2022-09-06T09:00:10;1.20;;;0.60;;
26906;SDS011;14472;56.880;16.658;2022-09-06T09:02:48;0.75;;;0.60;;
26906;SDS011;14472;56.880;16.658;2022-09-06T09:05:23;0.70;;;0.70;;
26906;SDS011;14472;56.880;16.658;2022-09-06T09:08:00;0.50;;;0.50;;
26906;SDS011;14472;56.880;16.658;2022-09-06T09:11:05;0.63;;;0.63;;
26906;SDS011;14472;56.880;16.658;2022-09-06T09:16:20;0.57;;;0.57;;
26906;SDS011;14472;56.880;16.658;2022-09-06T09:18:47;0.50;;;0.50;;
26906;SDS011;14472;56.880;16.658;2022-09-06T09:21:18;0.47;;;0.47;;
26906;SDS011;14472;56.880;16.658;2022-09-06T09:23:50;0.82;;;0.60;;
26906;SDS011;14472;56.880;16.658;2022-09-06T09:26:20;0.93;;;0.60;;
26906;SDS011;14472;56.880;16.658;2022-09-06T09:29:10;1.08;;;0.52;;
26906;SDS011;14472;56.880;16.658;2022-09-06T09:31:38;0.68;;;0.50;;
26906;SDS011;14472;56.880;16.658;2022-09-06T09:34:12;0.50;;;0.50;;
26906;SDS011;14472;56.880;16.658;2022-09-06T09:37:08;0.60;;;0.60;;
26906;SDS011;14472;56.880;16.658;2022-09-06T09:39:41;0.52;;;0.52;;
26906;SDS011;14472;56.880;16.658;2022-09-06T09:42:07;0.60;;;0.60;;
26906;SDS011;14472;56.880;16.658;2022-09-06T09:44:34;0.50;;;0.38;;
26906;SDS011;14472;56.880;16.658;2022-09-06T09:47:25;0.47;;;0.47;;
26906;SDS011;14472;56.880;16.658;2022-09-06T09:49:56;0.60;;;0.60;;
26906;SDS011;14472;56.880;16.658;2022-09-06T09:52:23;1.35;;;0.50;;
26906;SDS011;14472;56.880;16.658;2022-09-06T09:54:51;0.65;;;0.50;;
26906;SDS011;14472;56.880;16.658;2022-09-06T09:57:21;0.43;;;0.43;;
26906;SDS011;14472;56.880;16.658;2022-09-06T09:59:51;0.60;;;0.60;;
26906;SDS011;14472;56.880;16.658;2022-09-06T10:07:50;0.40;;;0.40;;
26906;SDS011;14472;56.880;16.658;2022-09-06T10:10:25;0.57;;;0.57;;
26906;SDS011;14472;56.880;16.658;2022-09-06T10:13:05;0.70;;;0.70;;
26906;SDS011;14472;56.880;16.658;2022-09-06T10:15:35;0.70;;;0.60;;
26906;SDS011;14472;56.880;16.658;2022-09-06T10:18:03;0.60;;;0.60;;
26906;SDS011;14472;56.880;16.658;2022-09-06T10:20:49;0.45;;;0.45;;
26906;SDS011;14472;56.880;16.658;2022-09-06T10:29:18;1.55;;;0.40;;
26906;SDS011;14472;56.880;16.658;2022-09-06T10:32:12;0.60;;;0.40;;
26906;SDS011;14472;56.880;16.658;2022-09-06T10:34:56;3.95;;;1.17;;
26906;SDS011;14472;56.880;16.658;2022-09-06T10:40:33;0.40;;;0.40;;
26906;SDS011;14472;56.880;16.658;2022-09-06T10:43:07;4.65;;;0.77;;
26906;SDS011;14472;56.880;16.658;2022-09-06T10:45:44;0.75;;;0.52;;
26906;SDS011;14472;56.880;16.658;2022-09-06T10:51:06;1.38;;;0.60;;
26906;SDS011;14472;56.880;16.658;2022-09-06T10:53:44;1.20;;;0.50;;
26906;SDS011;14472;56.880;16.658;2022-09-06T10:59:11;0.75;;;0.60;;
26906;SDS011;14472;56.880;16.658;2022-09-06T11:04:34;1.58;;;0.77;;
26906;SDS011;14472;56.880;16.658;2022-09-06T11:07:09;1.73;;;0.70;;
26906;SDS011;14472;56.880;16.658;2022-09-06T11:09:46;0.88;;;0.50;;
26906;SDS011;14472;56.880;16.658;2022-09-06T11:12:31;0.52;;;0.52;;
26906;SDS011;14472;56.880;16.658;2022-09-06T11:15:19;0.50;;;0.50;;
26906;SDS011;14472;56.880;16.658;2022-09-06T11:17:51;0.63;;;0.60;;
26906;SDS011;14472;56.880;16.658;2022-09-06T11:20:31;1.70;;;0.52;;
26906;SDS011;14472;56.880;16.658;2022-09-06T11:28:46;1.10;;;0.50;;
26906;SDS011;14472;56.880;16.658;2022-09-06T11:31:24;1.77;;;0.50;;
26906;SDS011;14472;56.880;16.658;2022-09-06T11:34:52;0.50;;;0.50;;
26906;SDS011;14472;56.880;16.658;2022-09-06T11:37:20;0.50;;;0.50;;
26906;SDS011;14472;56.880;16.658;2022-09-06T11:40:04;0.50;;;0.50;;
26906;SDS011;14472;56.880;16.658;2022-09-06T11:45:13;0.88;;;0.45;;
26906;SDS011;14472;56.880;16.658;2022-09-06T11:47:46;0.65;;;0.60;;
26906;SDS011;14472;56.880;16.658;2022-09-06T11:55:21;0.50;;;0.50;;
26906;SDS011;14472;56.880;16.658;2022-09-06T11:57:53;0.50;;;0.50;;
26906;SDS011;14472;56.880;16.658;2022-09-06T12:00:22;0.50;;;0.50;;
26906;SDS011;14472;56.880;16.658;2022-09-06T12:02:49;0.80;;;0.60;;
26906;SDS011;14472;56.880;16.658;2022-09-06T12:10:59;0.50;;;0.50;;
26906;SDS011;14472;56.880;16.658;2022-09-06T12:16:07;1.17;;;0.60;;
26906;SDS011;14472;56.880;16.658;2022-09-06T12:24:06;0.50;;;0.50;;
26906;SDS011;14472;56.880;16.658;2022-09-06T12:26:46;0.80;;;0.68;;
26906;SDS011;14472;56.880;16.658;2022-09-06T12:29:25;0.63;;;0.63;;
26906;SDS011;14472;56.880;16.658;2022-09-06T12:31:52;0.63;;;0.60;;
26906;SDS011;14472;56.880;16.658;2022-09-06T12:34:24;0.60;;;0.60;;
26906;SDS011;14472;56.880;16.658;2022-09-06T12:36:59;0.65;;;0.60;;
26906;SDS011;14472;56.880;16.658;2022-09-06T12:39:27;2.42;;;0.60;;
26906;SDS011;14472;56.880;16.658;2022-09-06T12:42:00;1.48;;;0.65;;
26906;SDS011;14472;56.880;16.658;2022-09-06T12:44:28;0.50;;;0.50;;
26906;SDS011;14472;56.880;16.658;2022-09-06T12:47:03;0.60;;;0.60;;
26906;SDS011;14472;56.880;16.658;2022-09-06T12:49:34;3.85;;;0.95;;
26906;SDS011;14472;56.880;16.658;2022-09-06T12:52:41;0.55;;;0.55;;
26906;SDS011;14472;56.880;16.658;2022-09-06T12:54:52;0.40;;;0.40;;
26906;SDS011;14472;56.880;16.658;2022-09-06T12:57:19;1.75;;;0.55;;
26906;SDS011;14472;56.880;16.658;2022-09-06T12:59:51;0.50;;;0.50;;
26906;SDS011;14472;56.880;16.658;2022-09-06T13:02:20;2.05;;;0.60;;
26906;SDS011;14472;56.880;16.658;2022-09-06T13:05:02;2.20;;;0.70;;
26906;SDS011;14472;56.880;16.658;2022-09-06T13:07:34;1.42;;;0.40;;
26906;SDS011;14472;56.880;16.658;2022-09-06T13:10:04;1.05;;;0.60;;
26906;SDS011;14472;56.880;16.658;2022-09-06T13:12:31;1.38;;;0.50;;
26906;SDS011;14472;56.880;16.658;2022-09-06T13:18:22;0.70;;;0.60;;
26906;SDS011;14472;56.880;16.658;2022-09-06T13:20:56;0.60;;;0.60;;
26906;SDS011;14472;56.880;16.658;2022-09-06T13:23:22;1.23;;;0.65;;
26906;SDS011;14472;56.880;16.658;2022-09-06T13:25:49;0.65;;;0.47;;
26906;SDS011;14472;56.880;16.658;2022-09-06T13:28:27;0.50;;;0.50;;
26906;SDS011;14472;56.880;16.658;2022-09-06T13:31:06;0.50;;;0.43;;
26906;SDS011;14472;56.880;16.658;2022-09-06T13:33:32;0.50;;;0.50;;
26906;SDS011;14472;56.880;16.658;2022-09-06T13:36:06;0.50;;;0.50;;
26906;SDS011;14472;56.880;16.658;2022-09-06T13:41:01;0.50;;;0.50;;
26906;SDS011;14472;56.880;16.658;2022-09-06T13:43:28;1.83;;;0.50;;
26906;SDS011;14472;56.880;16.658;2022-09-06T13:46:04;1.65;;;0.50;;
26906;SDS011;14472;56.880;16.658;2022-09-06T13:48:31;0.60;;;0.60;;
26906;SDS011;14472;56.880;16.658;2022-09-06T13:50:57;0.50;;;0.50;;
26906;SDS011;14472;56.880;16.658;2022-09-06T13:53:23;0.52;;;0.52;;
26906;SDS011;14472;56.880;16.658;2022-09-06T13:55:50;0.47;;;0.47;;
26906;SDS011;14472;56.880;16.658;2022-09-06T13:58:16;0.55;;;0.55;;
26906;SDS011;14472;56.880;16.658;2022-09-06T14:00:43;0.57;;;0.50;;
26906;SDS011;14472;56.880;16.658;2022-09-06T14:03:11;1.27;;;0.50;;
26906;SDS011;14472;56.880;16.658;2022-09-06T14:05:46;0.30;;;0.30;;
26906;SDS011;14472;56.880;16.658;2022-09-06T14:08:12;0.60;;;0.60;;
26906;SDS011;14472;56.880;16.658;2022-09-06T14:10:38;0.63;;;0.60;;
26906;SDS011;14472;56.880;16.658;2022-09-06T14:13:04;1.42;;;0.60;;
26906;SDS011;14472;56.880;16.658;2022-09-06T14:15:30;1.95;;;0.57;;
26906;SDS011;14472;56.880;16.658;2022-09-06T14:17:56;0.50;;;0.50;;
26906;SDS011;14472;56.880;16.658;2022-09-06T14:20:22;0.30;;;0.30;;
26906;SDS011;14472;56.880;16.658;2022-09-06T14:22:47;0.50;;;0.50;;
26906;SDS011;14472;56.880;16.658;2022-09-06T14:25:13;0.40;;;0.40;;
26906;SDS011;14472;56.880;16.658;2022-09-06T14:27:39;0.60;;;0.60;;
26906;SDS011;14472;56.880;16.658;2022-09-06T14:30:05;0.30;;;0.30;;
26906;SDS011;14472;56.880;16.658;2022-09-06T14:32:31;0.55;;;0.55;;
26906;SDS011;14472;56.880;16.658;2022-09-06T14:34:56;1.00;;;0.60;;
26906;SDS011;14472;56.880;16.658;2022-09-06T14:37:22;0.40;;;0.40;;
26906;SDS011;14472;56.880;16.658;2022-09-06T14:39:48;2.05;;;0.70;;
26906;SDS011;14472;56.880;16.658;2022-09-06T14:42:14;0.50;;;0.50;;
26906;SDS011;14472;56.880;16.658;2022-09-06T14:44:40;0.50;;;0.50;;
26906;SDS011;14472;56.880;16.658;2022-09-06T14:47:06;1.42;;;0.50;;
26906;SDS011;14472;56.880;16.658;2022-09-06T14:49:32;1.50;;;0.50;;
26906;SDS011;14472;56.880;16.658;2022-09-06T14:51:58;0.73;;;0.50;;
26906;SDS011;14472;56.880;16.658;2022-09-06T14:54:24;0.73;;;0.57;;
26906;SDS011;14472;56.880;16.658;2022-09-06T14:56:52;0.80;;;0.60;;
26906;SDS011;14472;56.880;16.658;2022-09-06T14:59:17;0.50;;;0.50;;
26906;SDS011;14472;56.880;16.658;2022-09-06T15:01:43;0.93;;;0.60;;
26906;SDS011;14472;56.880;16.658;2022-09-06T15:04:09;0.60;;;0.60;;
26906;SDS011;14472;56.880;16.658;2022-09-06T15:06:36;0.60;;;0.55;;
26906;SDS011;14472;56.880;16.658;2022-09-06T15:09:04;0.43;;;0.43;;
26906;SDS011;14472;56.880;16.658;2022-09-06T15:11:36;0.68;;;0.60;;
26906;SDS011;14472;56.880;16.658;2022-09-06T15:14:07;2.53;;;0.60;;
26906;SDS011;14472;56.880;16.658;2022-09-06T15:16:38;0.50;;;0.50;;
26906;SDS011;14472;56.880;16.658;2022-09-06T15:19:04;1.52;;;0.50;;
26906;SDS011;14472;56.880;16.658;2022-09-06T15:21:31;1.70;;;0.60;;
26906;SDS011;14472;56.880;16.658;2022-09-06T15:23:57;0.68;;;0.60;;
26906;SDS011;14472;56.880;16.658;2022-09-06T15:26:24;0.60;;;0.60;;
26906;SDS011;14472;56.880;16.658;2022-09-06T15:28:50;0.60;;;0.60;;
26906;SDS011;14472;56.880;16.658;2022-09-06T15:31:16;0.40;;;0.40;;
26906;SDS011;14472;56.880;16.658;2022-09-06T15:33:43;0.60;;;0.60;;
26906;SDS011;14472;56.880;16.658;2022-09-06T15:36:10;1.13;;;0.43;;
26906;SDS011;14472;56.880;16.658;2022-09-06T15:38:46;0.43;;;0.43;;
26906;SDS011;14472;56.880;16.658;2022-09-06T15:41:17;1.38;;;0.50;;
26906;SDS011;14472;56.880;16.658;2022-09-06T15:43:44;0.50;;;0.50;;
26906;SDS011;14472;56.880;16.658;2022-09-06T15:46:16;0.82;;;0.63;;
26906;SDS011;14472;56.880;16.658;2022-09-06T15:48:51;0.60;;;0.60;;
26906;SDS011;14472;56.880;16.658;2022-09-06T15:51:18;0.60;;;0.60;;
26906;SDS011;14472;56.880;16.658;2022-09-06T15:53:44;0.50;;;0.50;;
26906;SDS011;14472;56.880;16.658;2022-09-06T15:56:14;0.55;;;0.55;;
26906;SDS011;14472;56.880;16.658;2022-09-06T15:58:41;0.60;;;0.60;;
26906;SDS011;14472;56.880;16.658;2022-09-06T16:01:10;0.40;;;0.40;;
26906;SDS011;14472;56.880;16.658;2022-09-06T16:03:48;0.93;;;0.50;;
26906;SDS011;14472;56.880;16.658;2022-09-06T16:06:22;0.75;;;0.52;;
26906;SDS011;14472;56.880;16.658;2022-09-06T16:09:12;0.40;;;0.40;;
26906;SDS011;14472;56.880;16.658;2022-09-06T16:11:41;0.55;;;0.40;;
26906;SDS011;14472;56.880;16.658;2022-09-06T16:14:09;0.57;;;0.50;;
26906;SDS011;14472;56.880;16.658;2022-09-06T16:16:40;0.60;;;0.55;;
26906;SDS011;14472;56.880;16.658;2022-09-06T16:19:07;0.45;;;0.45;;
26906;SDS011;14472;56.880;16.658;2022-09-06T16:21:34;0.50;;;0.50;;
26906;SDS011;14472;56.880;16.658;2022-09-06T16:24:03;0.70;;;0.57;;
26906;SDS011;14472;56.880;16.658;2022-09-06T16:26:32;0.57;;;0.57;;
26906;SDS011;14472;56.880;16.658;2022-09-06T16:29:02;2.35;;;0.70;;
26906;SDS011;14472;56.880;16.658;2022-09-06T16:31:29;0.52;;;0.52;;